Time;durP1;ratioP1;P1;durP2;ratioP2;P2;SDS_P1;SDS_P2;PMS_P1;PMS_P2;Temp;Humidity;BMP_temperature;BMP_pressure;BME280_temperature;BME280_humidity;BME280_pressure;Samples;Min_cycle;Max_cycle;Signal;HPM_P1;HPM_P2
2022/11/06 00:00:43;;;;;;;61.10;30.88;;;;;;;6.36;86.87;101168.87;1722290;83;21212;-78
2022/11/06 00:03:51;;;;;;;66.45;34.30;;;;;;;6.33;86.87;101161.47;1721122;83;21223;-77
2022/11/06 00:06:56;;;;;;;67.10;33.18;;;;;;;6.21;87.11;101162.48;1722255;83;22358;-77
2022/11/06 00:10:02;;;;;;;65.40;32.73;;;;;;;6.32;87.02;101152.95;1720942;83;21488;-78
2022/11/06 00:13:10;;;;;;;68.42;33.90;;;;;;;6.25;86.98;101151.23;1721683;83;21233;-78
2022/11/06 00:16:21;;;;;;;59.03;29.85;;;;;;;6.20;87.11;101152.11;1723001;83;21316;-76
2022/11/06 00:19:26;;;;;;;66.77;33.02;;;;;;;6.19;87.87;101144.96;1721702;83;21328;-76
2022/11/06 00:22:31;;;;;;;63.15;31.37;;;;;;;6.34;87.12;101151.82;1720346;83;21219;-77
2022/11/06 00:25:37;;;;;;;64.03;32.33;;;;;;;6.53;86.58;101154.34;1721854;83;21200;-77
2022/11/06 00:28:43;;;;;;;61.77;31.02;;;;;;;6.47;86.49;101155.73;1721065;82;21243;-79
2022/11/06 00:31:50;;;;;;;63.48;32.10;;;;;;;6.52;86.69;101147.20;1721387;83;21298;-79
2022/11/06 00:34:56;;;;;;;60.58;29.82;;;;;;;6.61;85.93;101147.78;1722226;83;21814;-79
2022/11/06 00:38:02;;;;;;;60.33;29.55;;;;;;;6.53;85.51;101139.40;1714342;83;21180;-78
2022/11/06 00:41:14;;;;;;;58.55;31.70;;;;;;;6.65;85.08;101139.73;1714052;83;21208;-79
2022/11/06 00:44:20;;;;;;;60.70;31.68;;;;;;;6.45;85.62;101140.07;1712891;83;21287;-77
2022/11/06 00:47:25;;;;;;;57.65;29.98;;;;;;;6.45;85.66;101140.07;1711740;83;21219;-77
2022/11/06 00:50:33;;;;;;;63.02;30.50;;;;;;;6.28;85.94;101140.62;1714104;83;21232;-77
2022/11/06 00:53:39;;;;;;;58.38;29.72;;;;;;;6.45;85.57;101137.35;1714096;83;21252;-77
2022/11/06 00:56:46;;;;;;;51.70;26.37;;;;;;;6.22;86.00;101137.92;1714738;83;21201;-77
2022/11/06 00:59:52;;;;;;;62.85;30.40;;;;;;;6.03;86.43;101135.02;1714021;83;21192;-77
2022/11/06 01:02:58;;;;;;;47.08;25.08;;;;;;;5.90;87.24;101134.63;1714515;83;21205;-77
2022/11/06 01:06:16;;;;;;;53.75;28.15;;;;;;;5.82;87.79;101134.87;1714905;83;21161;-77
2022/11/06 01:09:25;;;;;;;61.48;28.87;;;;;;;5.92;87.35;101125.52;1714480;83;21185;-77
2022/11/06 01:12:31;;;;;;;50.40;26.90;;;;;;;5.88;87.04;101133.91;1715295;83;21196;-77
2022/11/06 01:15:36;;;;;;;49.63;26.23;;;;;;;5.67;87.59;101132.92;1714954;83;21807;-76
2022/11/06 01:18:43;;;;;;;54.73;27.40;;;;;;;5.90;86.87;101135.98;1714792;83;21836;-77
2022/11/06 01:21:55;;;;;;;59.03;29.23;;;;;;;5.87;87.11;101130.79;1713812;83;21768;-76
2022/11/06 01:24:50;;;;;;;61.73;31.40;;;;;;;5.87;86.65;101132.15;1712938;83;21216;-77
2022/11/06 01:27:42;;;;;;;60.85;27.90;;;;;;;5.51;87.46;101127.89;1714455;83;21790;-77
2022/11/06 01:30:29;;;;;;;63.28;29.77;;;;;;;5.54;87.84;101130.33;1712804;83;21208;-77
2022/11/06 01:33:24;;;;;;;68.75;30.55;;;;;;;5.34;88.70;101133.80;1712918;83;21763;-76
2022/11/06 01:36:12;;;;;;;66.45;31.02;;;;;;;5.46;88.53;101136.00;1714209;83;21260;-76
2022/11/06 01:39:20;;;;;;;63.02;30.52;;;;;;;5.51;88.25;101139.24;1715263;83;21165;-76
2022/11/06 01:42:27;;;;;;;63.42;30.17;;;;;;;5.26;88.97;101139.82;1715167;83;21177;-77
2022/11/06 01:45:41;;;;;;;54.55;27.80;;;;;;;5.24;89.05;101135.52;1713446;83;21256;-76
2022/11/06 01:48:49;;;;;;;61.53;29.00;;;;;;;5.31;88.56;101136.25;1692859;84;21312;-77
2022/11/06 01:52:05;;;;;;;67.35;30.88;;;;;;;5.36;87.87;101141.30;1685614;85;21720;-77
2022/11/06 01:55:24;;;;;;;54.93;28.10;;;;;;;5.38;87.45;101144.28;1685583;85;21181;-77
2022/11/06 01:58:30;;;;;;;57.17;28.85;;;;;;;5.26;87.67;101137.61;1684822;85;21514;-77
2022/11/06 02:01:35;;;;;;;59.88;30.75;;;;;;;5.33;87.13;101143.79;1684554;85;21187;-77
2022/11/06 02:04:44;;;;;;;50.45;24.32;;;;;;;5.31;86.70;101145.74;1685471;85;21169;-77
2022/11/06 02:07:51;;;;;;;53.85;26.80;;;;;;;5.13;87.11;101147.23;1684858;85;21818;-76
2022/11/06 02:10:58;;;;;;;58.05;28.27;;;;;;;5.04;87.27;101150.66;1684570;85;21268;-76
2022/11/06 02:14:30;;;;;;;58.50;29.25;;;;;;;4.96;87.72;101150.39;1683330;85;21240;-77
2022/11/06 02:17:47;;;;;;;62.48;29.85;;;;;;;4.90;87.90;101153.59;1684568;85;21182;-76
2022/11/06 02:21:22;;;;;;;65.40;28.42;;;;;;;4.74;88.53;101154.75;1683223;84;21213;-76
2022/11/06 02:25:17;;;;;;;59.88;26.70;;;;;;;4.60;89.01;101163.08;1710993;84;21230;-76
2022/11/06 02:28:45;;;;;;;62.20;29.87;;;;;;;4.79;88.38;101163.39;1708580;84;21528;-76
2022/11/06 02:31:53;;;;;;;58.30;28.32;;;;;;;4.61;88.64;101157.56;1683409;85;21375;-76
2022/11/06 02:34:59;;;;;;;57.23;28.77;;;;;;;4.51;89.11;101158.36;1684535;85;21759;-76
2022/11/06 02:38:09;;;;;;;50.43;26.87;;;;;;;4.47;89.41;101169.05;1685556;85;21286;-76
2022/11/06 02:41:23;;;;;;;57.58;28.62;;;;;;;4.42;89.44;101169.89;1684931;85;21247;-76
2022/11/06 02:44:31;;;;;;;55.05;27.32;;;;;;;4.26;90.20;101170.19;1683213;85;21795;-77
2022/11/06 02:47:38;;;;;;;49.18;24.95;;;;;;;4.22;90.49;101179.02;1687822;82;21240;-76
2022/11/06 02:50:49;;;;;;;50.80;26.55;;;;;;;4.30;90.46;101182.53;1690182;85;21815;-76
2022/11/06 02:53:54;;;;;;;53.60;28.23;;;;;;;4.33;90.14;101182.31;1689360;85;22572;-75
2022/11/06 02:57:02;;;;;;;57.55;27.27;;;;;;;4.17;90.61;101186.63;1689961;85;22144;-76
2022/11/06 03:00:14;;;;;;;56.48;27.70;;;;;;;4.15;90.63;101190.45;1689982;85;21775;-76
2022/11/06 03:03:23;;;;;;;56.40;25.95;;;;;;;4.29;90.27;101196.56;1699653;84;21173;-76
2022/11/06 03:06:39;;;;;;;48.87;24.60;;;;;;;4.29;89.87;101200.63;1690844;85;21185;-76
2022/11/06 03:09:44;;;;;;;53.40;27.40;;;;;;;4.26;89.64;101202.20;1689982;85;21193;-75
2022/11/06 03:13:03;;;;;;;46.08;24.05;;;;;;;4.12;90.14;101200.14;1688595;84;21212;-76
2022/11/06 03:16:13;;;;;;;54.70;27.10;;;;;;;3.99;90.41;101196.11;1690605;85;21236;-76
2022/11/06 03:19:41;;;;;;;53.38;27.98;;;;;;;3.98;90.40;101201.15;1689946;85;21197;-76
2022/11/06 03:23:15;;;;;;;52.33;26.17;;;;;;;4.00;89.95;101201.43;1690030;85;21209;-76
2022/11/06 03:26:43;;;;;;;54.70;26.82;;;;;;;4.09;89.38;101203.92;1690096;85;21181;-75
2022/11/06 03:29:55;;;;;;;51.77;25.95;;;;;;;3.95;89.90;101201.36;1690262;85;21189;-76
2022/11/06 03:33:24;;;;;;;54.40;28.25;;;;;;;3.95;89.80;101214.44;1691008;85;21157;-76
2022/11/06 03:36:32;;;;;;;54.93;26.12;;;;;;;3.94;89.62;101214.53;1691056;85;21687;-76
2022/11/06 03:39:42;;;;;;;56.23;27.13;;;;;;;3.67;90.31;101216.03;1690754;85;21259;-76
2022/11/06 03:42:48;;;;;;;40.03;19.77;;;;;;;3.91;90.71;101217.48;1675784;83;22576;-77
2022/11/06 03:45:53;;;;;;;54.98;28.73;;;;;;;3.92;90.83;101224.62;1671559;85;21212;-76
2022/11/06 03:49:08;;;;;;;51.68;26.80;;;;;;;3.95;91.04;101221.67;1676436;83;21248;-76
2022/11/06 03:52:22;;;;;;;59.80;29.87;;;;;;;3.95;91.54;101221.67;1688045;85;21319;-76
2022/11/06 03:55:27;;;;;;;54.53;27.50;;;;;;;4.30;90.80;101226.73;1686701;85;21259;-76
2022/11/06 03:58:24;;;;;;;40.20;21.73;;;;;;;4.30;91.06;101214.53;1687811;85;21272;-76
2022/11/06 04:01:18;;;;;;;53.45;27.73;;;;;;;4.30;91.03;101221.31;1687847;85;21228;-77
2022/11/06 04:04:21;;;;;;;43.45;23.92;;;;;;;4.19;91.78;101219.90;1667029;85;21295;-76
2022/11/06 04:07:20;;;;;;;53.98;27.58;;;;;;;4.47;91.09;101216.00;1688264;85;21527;-76
2022/11/06 04:13:56;;;;;;;51.98;27.82;;;;;;;4.57;90.53;101221.59;1694482;84;21234;-77
2022/11/06 04:17:07;;;;;;;54.33;27.30;;;;;;;4.68;90.22;101216.70;1694191;84;21807;-76
2022/11/06 04:27:59;;;;;;;48.20;27.30;;;;;;;4.60;89.93;101218.62;1651068;86;21244;-76
2022/11/06 04:31:20;;;;;;;44.00;25.88;;;;;;;4.59;89.91;101216.41;1703253;84;21859;-76
2022/11/06 04:34:46;;;;;;;50.38;26.12;;;;;;;4.64;89.58;101213.36;1704206;84;21367;-77
2022/11/06 04:38:15;;;;;;;50.90;26.02;;;;;;;4.71;88.87;101215.99;1704607;84;21502;-77
2022/11/06 04:41:44;;;;;;;48.05;26.30;;;;;;;4.67;88.64;101217.20;1704428;84;21917;-76
2022/11/06 04:44:58;;;;;;;44.27;26.25;;;;;;;4.56;88.72;101224.80;1704021;84;21299;-76
2022/11/06 04:48:04;;;;;;;51.33;26.07;;;;;;;4.76;87.76;101224.63;1705459;84;21157;-76
2022/11/06 04:51:13;;;;;;;48.87;25.32;;;;;;;4.75;87.68;101225.62;1704185;84;21185;-76
2022/11/06 04:54:19;;;;;;;47.55;23.83;;;;;;;4.65;87.64;101224.56;1704359;84;21800;-77
2022/11/06 04:57:26;;;;;;;44.53;24.40;;;;;;;4.65;87.81;101230.48;1703213;84;21209;-76
2022/11/06 05:00:31;;;;;;;56.45;27.17;;;;;;;4.65;87.60;101227.27;1703138;83;21198;-76
2022/11/06 05:03:39;;;;;;;51.92;28.20;;;;;;;4.78;87.19;101232.64;1703496;84;21807;-76
2022/11/06 05:06:46;;;;;;;52.85;28.10;;;;;;;4.38;87.52;101241.56;1703142;84;21196;-76
2022/11/06 05:09:52;;;;;;;48.25;26.07;;;;;;;4.42;87.69;101243.03;1703124;84;21236;-77
2022/11/06 05:12:59;;;;;;;46.90;23.75;;;;;;;4.59;87.77;101242.16;1703071;84;21233;-77
2022/11/06 05:16:05;;;;;;;50.65;26.85;;;;;;;4.56;88.10;101242.41;1703152;83;21217;-76
2022/11/06 05:19:10;;;;;;;55.50;28.98;;;;;;;4.69;87.73;101247.75;1705056;84;21209;-76
2022/11/06 05:25:44;;;;;;;49.42;26.75;;;;;;;4.27;88.32;101251.31;1703856;84;21173;-76
2022/11/06 05:28:50;;;;;;;51.58;27.02;;;;;;;4.29;90.04;101253.44;1704591;84;21161;-77
2022/11/06 05:31:50;;;;;;;44.03;22.20;;;;;;;4.45;89.47;101257.22;1704660;84;21185;-76
2022/11/06 05:34:57;;;;;;;56.77;26.57;;;;;;;4.61;89.34;101263.70;1704377;84;21193;-76
2022/11/06 05:38:07;;;;;;;55.15;28.40;;;;;;;4.63;89.51;101265.83;1704275;84;21212;-76
2022/11/06 05:41:12;;;;;;;;;;;;;;;4.73;89.92;101270.07;1707545;84;21826;-76
2022/11/06 05:44:18;;;;;;;47.23;25.80;;;;;;;4.73;89.92;101266.00;1704487;84;20241;-76
2022/11/06 05:47:25;;;;;;;52.50;26.65;;;;;;;4.63;90.14;101273.10;1704547;84;21181;-76
2022/11/06 05:50:32;;;;;;;49.80;27.70;;;;;;;4.70;90.12;101277.92;1704143;83;21296;-76
2022/11/06 05:53:42;;;;;;;46.85;26.23;;;;;;;4.75;89.78;101282.54;1696964;84;21204;-76
2022/11/06 05:56:49;;;;;;;49.58;26.97;;;;;;;4.99;89.72;101277.60;1696561;84;21198;-76
2022/11/06 05:59:55;;;;;;;49.63;26.15;;;;;;;4.87;89.92;101285.66;1696082;84;21186;-76
2022/11/06 06:03:02;;;;;;;52.85;26.97;;;;;;;5.07;89.77;101288.20;1696236;84;21189;-76
2022/11/06 06:06:07;;;;;;;46.70;27.10;;;;;;;5.11;89.53;101280.22;1696193;84;21217;-77
2022/11/06 06:09:12;;;;;;;50.95;27.15;;;;;;;5.12;89.33;101281.08;1696719;84;21740;-78
2022/11/06 06:12:19;;;;;;;58.40;30.30;;;;;;;5.14;89.57;101280.48;1697518;84;21185;-77
2022/11/06 06:15:18;;;;;;;49.85;26.33;;;;;;;5.19;89.27;101278.28;1698185;84;21265;-76
2022/11/06 06:18:23;;;;;;;50.28;28.02;;;;;;;5.30;88.82;101285.58;1698466;84;21161;-77
2022/11/06 06:21:23;;;;;;;48.15;25.80;;;;;;;5.32;88.67;101288.56;1698237;84;21186;-77
2022/11/06 06:24:29;;;;;;;53.00;28.05;;;;;;;5.12;88.55;101285.14;1697492;84;21222;-77
2022/11/06 06:27:35;;;;;;;52.60;26.23;;;;;;;5.17;89.04;101287.01;1697419;84;21771;-76
2022/11/06 06:30:41;;;;;;;49.38;27.87;;;;;;;5.33;89.07;101289.42;1697451;84;21185;-76
2022/11/06 06:33:48;;;;;;;48.13;27.20;;;;;;;5.27;89.00;101289.42;1678369;84;21209;-76
2022/11/06 06:36:59;;;;;;;51.13;26.23;;;;;;;5.66;88.38;101291.85;1696178;83;21214;-76
2022/11/06 06:40:04;;;;;;;51.60;27.90;;;;;;;5.64;88.12;101296.02;1698371;84;21296;-76
2022/11/06 06:43:10;;;;;;;50.88;27.17;;;;;;;5.61;88.02;101297.14;1698456;84;21186;-76
2022/11/06 06:46:16;;;;;;;44.98;25.80;;;;;;;5.66;87.39;101288.64;1698519;84;21145;-76
2022/11/06 06:49:22;;;;;;;49.63;27.80;;;;;;;5.62;87.55;101292.58;1698576;84;21154;-77
2022/11/06 06:52:28;;;;;;;47.85;25.65;;;;;;;5.77;87.63;101290.50;1701068;84;21181;-76
2022/11/06 06:55:32;;;;;;;50.30;26.45;;;;;;;5.72;87.60;101294.93;1703729;84;21225;-76
2022/11/06 06:58:38;;;;;;;47.90;25.40;;;;;;;5.72;87.48;101286.79;1704580;84;21775;-76
2022/11/06 07:01:45;;;;;;;47.45;25.10;;;;;;;5.84;87.34;101283.11;1704485;84;21181;-77
2022/11/06 07:04:51;;;;;;;52.15;28.40;;;;;;;5.86;86.73;101285.20;1704497;84;21292;-76
2022/11/06 07:07:56;;;;;;;46.65;26.80;;;;;;;5.84;86.44;101290.39;1682010;84;21233;-76
2022/11/06 07:11:07;;;;;;;45.38;25.27;;;;;;;5.85;86.10;101287.55;1703292;84;21260;-77
2022/11/06 07:14:13;;;;;;;47.17;27.52;;;;;;;5.75;86.42;101287.91;1706236;82;21176;-76
2022/11/06 07:17:18;;;;;;;41.92;25.45;;;;;;;5.80;86.57;101288.41;1687406;85;21291;-77
2022/11/06 07:20:23;;;;;;;46.40;27.25;;;;;;;5.74;87.31;101286.66;1642650;87;21231;-76
2022/11/06 07:23:30;;;;;;;52.03;26.20;;;;;;;5.89;87.44;101280.89;1672711;85;21305;-77
2022/11/06 07:26:36;;;;;;;45.00;25.02;;;;;;;5.98;86.97;101288.84;1686747;85;21228;-76
2022/11/06 07:29:43;;;;;;;39.60;23.50;;;;;;;6.02;86.77;101290.32;1693368;84;21215;-78
2022/11/06 07:32:48;;;;;;;48.35;26.05;;;;;;;5.99;87.15;101281.55;1693430;84;21207;-77
2022/11/06 07:35:48;;;;;;;44.03;25.77;;;;;;;6.28;86.68;101288.20;1693766;84;21861;-76
2022/11/06 07:38:54;;;;;;;52.13;27.13;;;;;;;6.23;86.50;101280.92;1693608;84;21212;-77
2022/11/06 07:42:02;;;;;;;42.98;24.90;;;;;;;6.38;85.81;101286.45;1694388;83;21204;-77
2022/11/06 07:45:10;;;;;;;49.90;26.17;;;;;;;6.53;85.33;101278.02;1722346;83;21216;-77
2022/11/06 07:48:15;;;;;;;46.88;24.67;;;;;;;6.59;84.89;101280.26;1721104;83;21235;-77
2022/11/06 07:51:21;;;;;;;45.35;26.33;;;;;;;6.56;84.35;101284.08;1722123;83;21243;-77
2022/11/06 07:54:29;;;;;;;45.00;25.55;;;;;;;6.55;84.21;101276.92;1721630;82;21231;-76
2022/11/06 07:57:34;;;;;;;38.83;25.00;;;;;;;6.59;84.25;101278.90;1713668;83;21236;-77
2022/11/06 08:00:40;;;;;;;46.35;27.65;;;;;;;6.86;84.15;101275.71;1692631;84;21196;-76
2022/11/06 08:03:46;;;;;;;42.03;24.80;;;;;;;6.86;84.25;101283.37;1694187;84;21207;-77
2022/11/06 08:06:54;;;;;;;42.50;26.87;;;;;;;6.98;83.67;101287.43;1692419;84;21227;-76
2022/11/06 08:10:00;;;;;;;37.67;22.98;;;;;;;6.99;83.76;101289.15;1692101;84;21595;-76
2022/11/06 08:13:08;;;;;;;44.60;25.08;;;;;;;6.97;83.62;101292.51;1693543;84;21275;-77
2022/11/06 08:16:17;;;;;;;37.58;23.42;;;;;;;6.98;82.27;101288.79;1693076;84;21224;-77
2022/11/06 08:19:23;;;;;;;37.03;24.12;;;;;;;7.15;81.47;101289.56;1693037;84;21986;-76
2022/11/06 08:22:28;;;;;;;37.65;23.47;;;;;;;7.05;81.82;101291.34;1693560;84;21240;-77
2022/11/06 08:25:35;;;;;;;41.68;23.70;;;;;;;7.16;81.61;101298.12;1693061;83;21220;-77
2022/11/06 08:28:40;;;;;;;39.30;23.50;;;;;;;7.16;81.09;101298.12;1692935;84;21208;-77
2022/11/06 08:31:47;;;;;;;44.25;25.80;;;;;;;7.16;80.67;101292.67;1693965;84;21200;-78
2022/11/06 08:34:54;;;;;;;38.17;23.60;;;;;;;7.35;80.75;101298.27;1694287;84;21187;-76
2022/11/06 08:38:01;;;;;;;33.80;21.35;;;;;;;7.43;80.25;101297.13;1693606;84;21299;-77
2022/11/06 08:41:10;;;;;;;36.40;21.40;;;;;;;7.75;78.95;101307.56;1693819;83;21624;-76
2022/11/06 08:44:03;;;;;;;35.73;23.27;;;;;;;7.67;78.74;101293.27;1714399;83;21190;-77
2022/11/06 08:46:49;;;;;;;40.10;22.82;;;;;;;7.69;78.42;101289.90;1695706;84;21270;-77
2022/11/06 08:49:43;;;;;;;33.28;20.75;;;;;;;7.72;78.16;101290.14;1695503;84;21209;-78
2022/11/06 08:52:29;;;;;;;36.73;21.97;;;;;;;7.57;78.57;101298.63;1695452;84;21190;-76
2022/11/06 08:55:21;;;;;;;35.60;21.82;;;;;;;7.42;79.13;101302.17;1689797;83;21804;-78
2022/11/06 08:58:27;;;;;;;31.48;20.02;;;;;;;7.48;78.95;101299.92;1672482;85;21269;-76
2022/11/06 09:01:33;;;;;;;38.25;22.62;;;;;;;7.62;78.61;101300.48;1671440;85;21206;-77
2022/11/06 09:04:38;;;;;;;31.90;19.02;;;;;;;7.56;79.27;101302.34;1673006;85;21228;-76
2022/11/06 09:07:45;;;;;;;29.12;19.05;;;;;;;7.70;78.66;101299.79;1653984;85;21226;-78
2022/11/06 09:10:51;;;;;;;25.77;16.65;;;;;;;7.93;78.07;101298.64;1672689;85;21272;-78
2022/11/06 09:13:58;;;;;;;33.20;17.92;;;;;;;8.11;76.29;101298.02;1672789;85;21262;-78
2022/11/06 09:17:07;;;;;;;32.93;19.55;;;;;;;8.10;75.56;101301.75;1673839;85;21257;-77
2022/11/06 09:20:14;;;;;;;28.57;18.32;;;;;;;8.23;75.33;101305.08;1672732;85;21265;-76
2022/11/06 09:23:19;;;;;;;22.58;16.65;;;;;;;8.24;75.74;101304.11;1674214;85;21209;-77
2022/11/06 09:26:25;;;;;;;26.73;16.40;;;;;;;8.34;75.54;101310.95;1674141;85;21221;-76
2022/11/06 09:29:32;;;;;;;28.50;17.65;;;;;;;8.43;73.87;101308.80;1673342;85;21206;-77
2022/11/06 09:32:37;;;;;;;24.40;16.95;;;;;;;8.36;73.46;101310.30;1672144;85;21273;-77
2022/11/06 09:35:44;;;;;;;26.93;17.37;;;;;;;8.41;73.82;101311.64;1674158;85;21217;-77
2022/11/06 09:38:51;;;;;;;28.92;18.15;;;;;;;8.36;74.58;101304.38;1673781;85;21261;-77
2022/11/06 09:42:08;;;;;;;26.62;17.57;;;;;;;8.55;74.05;101310.40;1674365;85;21405;-76
2022/11/06 09:45:21;;;;;;;41.08;20.45;;;;;;;8.72;73.65;101310.75;1674245;85;21217;-76
2022/11/06 09:48:32;;;;;;;26.20;18.82;;;;;;;8.62;73.90;101302.55;1674324;85;21230;-76
2022/11/06 09:51:47;;;;;;;24.02;17.55;;;;;;;8.31;74.70;101311.22;1674837;85;21229;-77
2022/11/06 09:55:00;;;;;;;25.23;17.00;;;;;;;8.05;75.42;101306.24;1673919;85;21221;-77
2022/11/06 09:58:08;;;;;;;24.95;16.70;;;;;;;7.99;75.40;101304.54;1666419;86;21860;-76
2022/11/06 10:01:27;;;;;;;26.35;17.12;;;;;;;7.96;75.52;101304.83;1669770;86;21222;-76
2022/11/06 10:04:50;;;;;;;28.00;19.23;;;;;;;8.09;75.02;101304.98;1669353;86;21221;-76
2022/11/06 10:08:03;;;;;;;29.02;19.15;;;;;;;7.88;75.85;101306.35;1669645;86;21372;-77
2022/11/06 10:11:31;;;;;;;27.95;17.23;;;;;;;7.90;76.03;101301.66;1667502;85;21234;-78
2022/11/06 10:14:59;;;;;;;24.37;16.60;;;;;;;8.01;75.26;101297.11;1668942;86;21213;-76
2022/11/06 10:18:37;;;;;;;29.18;19.00;;;;;;;8.00;74.96;101293.53;1669481;86;21790;-77
2022/11/06 10:21:55;;;;;;;24.07;16.62;;;;;;;8.07;74.77;101293.84;1669069;86;21285;-76
2022/11/06 10:25:22;;;;;;;26.35;16.65;;;;;;;7.94;75.05;101284.02;1668082;86;21257;-77
2022/11/06 10:28:41;;;;;;;24.02;16.17;;;;;;;7.99;74.21;101284.97;1668422;86;21273;-76
2022/11/06 10:31:56;;;;;;;21.33;15.05;;;;;;;8.22;74.05;101285.64;1641319;86;21225;-77
2022/11/06 10:35:32;;;;;;;23.62;15.13;;;;;;;8.33;73.24;101288.80;1669158;86;21639;-77
2022/11/06 10:38:41;;;;;;;24.90;16.23;;;;;;;8.24;73.37;101286.39;1669213;86;21242;-76
2022/11/06 10:41:46;;;;;;;25.88;15.65;;;;;;;8.31;73.49;101281.23;1670553;86;21761;-77
2022/11/06 10:45:04;;;;;;;23.22;15.32;;;;;;;8.19;74.42;101275.90;1669995;86;21253;-76
2022/11/06 10:48:29;;;;;;;24.77;16.32;;;;;;;8.29;73.92;101268.26;1669384;86;21209;-78
2022/11/06 10:52:02;;;;;;;25.00;16.07;;;;;;;8.50;72.70;101276.38;1668095;84;21769;-77
2022/11/06 10:55:57;;;;;;;27.93;16.80;;;;;;;8.56;71.28;101275.81;1669317;86;21269;-77
2022/11/06 10:59:04;;;;;;;21.77;15.15;;;;;;;8.70;70.80;101270.84;1642654;87;21256;-78
2022/11/06 11:02:12;;;;;;;21.93;12.03;;;;;;;8.44;72.08;101272.35;1643430;87;21228;-76
2022/11/06 11:05:24;;;;;;;22.70;15.30;;;;;;;8.55;71.81;101274.09;1642135;87;21268;-77
2022/11/06 11:08:45;;;;;;;20.92;14.35;;;;;;;8.63;70.51;101274.27;1643815;87;21220;-78
2022/11/06 11:11:57;;;;;;;18.87;14.18;;;;;;;8.30;71.52;101273.56;1643667;87;21224;-77
2022/11/06 11:15:28;;;;;;;20.02;13.95;;;;;;;8.24;71.85;101267.81;1643656;87;21858;-77
2022/11/06 11:18:34;;;;;;;21.12;13.70;;;;;;;8.04;72.16;101264.98;1642218;86;22471;-77
2022/11/06 11:21:39;;;;;;;22.10;14.78;;;;;;;8.19;71.29;101267.72;1643213;87;21354;-77
2022/11/06 11:24:46;;;;;;;20.72;13.60;;;;;;;8.34;71.14;101270.06;1641849;87;21818;-76
2022/11/06 11:27:51;;;;;;;22.77;14.30;;;;;;;8.32;71.63;101266.59;1608093;87;21204;-77
2022/11/06 11:31:19;;;;;;;19.82;13.32;;;;;;;8.51;70.74;101259.01;1642711;87;21284;-77
2022/11/06 11:34:37;;;;;;;24.07;13.50;;;;;;;8.51;70.35;101263.09;1641708;87;21834;-78
2022/11/06 11:37:47;;;;;;;18.90;13.18;;;;;;;8.55;70.68;101261.82;1643284;87;21216;-77
2022/11/06 11:40:53;;;;;;;18.73;12.78;;;;;;;8.28;71.41;101263.31;1642071;87;21798;-77
2022/11/06 11:44:24;;;;;;;18.12;12.78;;;;;;;8.25;71.02;101263.58;1643424;87;21271;-77
2022/11/06 11:47:29;;;;;;;;;;;;;;;8.20;70.58;101269.44;1645994;87;21264;-77
2022/11/06 11:50:38;;;;;;;30.57;13.05;;;;;;;8.30;70.32;101268.11;1643379;87;20229;-78
2022/11/06 11:53:45;;;;;;;19.45;12.37;;;;;;;8.28;69.76;101266.04;1643376;87;21799;-76
2022/11/06 11:57:04;;;;;;;18.10;10.78;;;;;;;8.16;70.59;101265.77;1643343;87;21220;-77
2022/11/06 12:00:12;;;;;;;17.50;12.05;;;;;;;8.21;70.31;101267.58;1668952;86;21317;-77
2022/11/06 12:03:18;;;;;;;14.87;11.00;;;;;;;8.10;69.78;101266.33;1670165;86;21230;-76
2022/11/06 12:06:23;;;;;;;16.62;10.55;;;;;;;8.24;69.62;101268.67;1669635;86;21237;-77
2022/11/06 12:09:29;;;;;;;16.87;10.38;;;;;;;8.37;68.67;101262.98;1669795;86;21217;-77
2022/11/06 12:12:39;;;;;;;14.60;10.48;;;;;;;8.37;68.28;101265.20;1668372;86;21245;-77
2022/11/06 12:16:08;;;;;;;15.90;11.05;;;;;;;8.26;67.39;101265.30;1668829;86;21265;-77
2022/11/06 12:19:14;;;;;;;16.45;11.35;;;;;;;8.08;67.14;101265.08;1676959;85;21199;-77
2022/11/06 12:22:31;;;;;;;13.03;9.65;;;;;;;8.16;66.57;101261.17;1675647;85;21228;-76
2022/11/06 12:25:45;;;;;;;23.10;12.10;;;;;;;8.07;67.19;101264.72;1675773;85;21203;-76
2022/11/06 12:28:51;;;;;;;17.25;10.75;;;;;;;8.04;67.77;101258.67;1700166;84;21164;-77
2022/11/06 12:32:06;;;;;;;16.50;10.58;;;;;;;8.19;67.20;101262.78;1700963;84;21184;-77
2022/11/06 12:35:37;;;;;;;17.62;11.40;;;;;;;8.29;67.05;101266.39;1693930;83;21759;-77
2022/11/06 12:39:07;;;;;;;16.93;11.80;;;;;;;8.21;67.15;101267.58;1669491;86;21268;-77
2022/11/06 12:42:13;;;;;;;17.52;11.18;;;;;;;8.23;67.83;101268.78;1699043;84;21239;-78
2022/11/06 12:45:19;;;;;;;17.92;12.82;;;;;;;8.15;68.20;101266.77;1715003;83;21802;-77
2022/11/06 12:48:41;;;;;;;18.80;12.55;;;;;;;8.23;68.55;101271.01;1643418;86;21180;-78
2022/11/06 12:52:29;;;;;;;16.20;11.60;;;;;;;8.27;68.17;101271.10;1690919;85;21165;-77
2022/11/06 12:55:43;;;;;;;21.50;13.13;;;;;;;8.27;68.16;101264.29;1685715;85;21220;-77
2022/11/06 12:58:59;;;;;;;19.48;11.83;;;;;;;7.94;68.35;101269.53;1687320;84;21247;-78
2022/11/06 13:02:42;;;;;;;18.05;11.80;;;;;;;7.75;68.72;101264.84;1695955;84;21299;-76
2022/11/06 13:05:58;;;;;;;19.12;11.78;;;;;;;7.84;68.33;101267.26;1697339;84;21208;-77
2022/11/06 13:09:23;;;;;;;19.52;11.50;;;;;;;7.77;68.40;101266.95;1697357;84;21244;-77
2022/11/06 13:12:59;;;;;;;19.67;11.70;;;;;;;7.81;68.26;101260.23;1696567;84;21877;-76
2022/11/06 13:16:21;;;;;;;18.62;11.60;;;;;;;7.84;68.81;101264.54;1697130;84;21286;-75
2022/11/06 13:19:32;;;;;;;16.35;11.70;;;;;;;7.71;69.22;101271.55;1697637;84;21810;-78
2022/11/06 13:23:02;;;;;;;17.17;11.63;;;;;;;7.79;69.20;101261.36;1696566;84;21231;-77
2022/11/06 13:26:12;;;;;;;16.97;11.73;;;;;;;7.78;68.91;101255.55;1697617;84;21240;-77
2022/11/06 13:29:20;;;;;;;17.10;11.08;;;;;;;7.78;68.95;101261.86;1697503;84;22522;-77
2022/11/06 13:32:27;;;;;;;17.48;11.53;;;;;;;7.83;69.07;101261.45;1696895;84;21857;-77
2022/11/06 13:35:34;;;;;;;18.82;12.07;;;;;;;7.92;68.64;101258.78;1698130;84;21861;-76
2022/11/06 13:38:47;;;;;;;16.23;12.13;;;;;;;7.93;68.49;101264.58;1697561;84;21858;-76
2022/11/06 13:41:53;;;;;;;15.83;11.83;;;;;;;8.04;68.00;101260.03;1697122;84;21797;-76
2022/11/06 13:45:00;;;;;;;15.10;10.85;;;;;;;7.86;68.02;101255.25;1697562;84;21207;-79
2022/11/06 13:48:26;;;;;;;15.93;10.30;;;;;;;7.91;67.85;101259.78;1696296;84;21766;-77
2022/11/06 13:52:01;;;;;;;16.20;10.30;;;;;;;7.85;66.89;101251.27;1697512;84;21263;-76
2022/11/06 13:55:23;;;;;;;20.23;13.43;;;;;;;7.77;66.98;101260.14;1697565;84;21255;-77
2022/11/06 13:59:02;;;;;;;18.73;11.63;;;;;;;7.74;67.39;101260.41;1697589;84;21211;-76
2022/11/06 14:02:30;;;;;;;20.55;14.30;;;;;;;7.78;66.96;101258.28;1678184;84;21282;-77
2022/11/06 14:06:05;;;;;;;15.13;10.80;;;;;;;7.33;68.37;101259.41;1697799;84;21188;-76
2022/11/06 14:09:23;;;;;;;14.00;9.78;;;;;;;7.38;69.03;101265.33;1697634;84;21215;-77
2022/11/06 14:12:32;;;;;;;14.80;9.83;;;;;;;7.39;68.03;101269.80;1697605;84;21211;-77
2022/11/06 14:15:43;;;;;;;15.93;10.95;;;;;;;7.53;67.58;101267.71;1697578;84;21192;-77
2022/11/06 14:18:49;;;;;;;15.72;11.50;;;;;;;7.39;68.41;101269.80;1697584;84;21319;-76
2022/11/06 14:22:17;;;;;;;16.40;11.73;;;;;;;7.35;68.04;101272.91;1697459;84;21239;-76
2022/11/06 14:25:50;;;;;;;19.87;11.90;;;;;;;7.57;67.65;101263.73;1696292;84;21400;-76
2022/11/06 14:28:46;;;;;;;25.30;14.43;;;;;;;7.60;67.57;101268.92;1697874;84;21888;-77
2022/11/06 14:32:12;;;;;;;25.97;14.73;;;;;;;7.22;68.64;101272.23;1697385;84;21798;-77
2022/11/06 14:35:43;;;;;;;28.32;14.73;;;;;;;7.29;68.18;101277.50;1680252;84;21232;-77
2022/11/06 14:38:49;;;;;;;20.00;13.03;;;;;;;7.43;67.63;101271.27;1696191;84;21215;-77
2022/11/06 14:42:01;;;;;;;36.38;18.45;;;;;;;7.53;67.23;101269.08;1698006;84;21255;-77
2022/11/06 14:45:25;;;;;;;43.00;19.45;;;;;;;7.14;67.81;101280.54;1697666;84;21761;-78
2022/11/06 14:48:37;;;;;;;55.80;24.00;;;;;;;7.23;68.50;101280.26;1696346;84;21797;-77
2022/11/06 14:51:43;;;;;;;21.10;12.73;;;;;;;7.24;68.15;101279.25;1697617;84;21204;-77